sensor_id;sensor_type;location;lat;lon;timestamp;pressure;altitude;pressure_sealevel;temperature;humidity
38880;BME280;25887;30.194;-97.880;2023-08-21T00:00:42;98268.41;;;42.40;20.56
38880;BME280;25887;30.194;-97.880;2023-08-21T00:03:08;98257.19;;;42.37;20.27
38880;BME280;25887;30.194;-97.880;2023-08-21T00:05:35;98263.66;;;42.36;20.45
38880;BME280;25887;30.194;-97.880;2023-08-21T00:08:01;98255.94;;;42.33;20.83
38880;BME280;25887;30.194;-97.880;2023-08-21T00:10:27;98255.94;;;42.33;20.34
38880;BME280;25887;30.194;-97.880;2023-08-21T00:12:53;98253.44;;;42.31;20.44
38880;BME280;25887;30.194;-97.880;2023-08-21T00:15:19;98255.97;;;42.26;20.50
38880;BME280;25887;30.194;-97.880;2023-08-21T00:17:45;98263.00;;;42.20;20.14
38880;BME280;25887;30.194;-97.880;2023-08-21T00:20:12;98255.28;;;42.17;20.42
38880;BME280;25887;30.194;-97.880;2023-08-21T00:22:38;98268.16;;;42.15;20.24
38880;BME280;25887;30.194;-97.880;2023-08-21T00:25:05;98255.91;;;42.13;20.44
38880;BME280;25887;30.194;-97.880;2023-08-21T00:27:31;98271.25;;;42.12;20.28
38880;BME280;25887;30.194;-97.880;2023-08-21T00:29:59;98258.97;;;42.10;20.59
38880;BME280;25887;30.194;-97.880;2023-08-21T00:32:28;98263.13;;;42.06;20.42
38880;BME280;25887;30.194;-97.880;2023-08-21T00:34:54;98262.53;;;42.04;20.81
38880;BME280;25887;30.194;-97.880;2023-08-21T00:37:20;98258.56;;;41.99;20.56
38880;BME280;25887;30.194;-97.880;2023-08-21T00:39:46;98264.38;;;41.96;20.75
38880;BME280;25887;30.194;-97.880;2023-08-21T00:42:12;98261.22;;;41.93;20.62
38880;BME280;25887;30.194;-97.880;2023-08-21T00:44:38;98261.66;;;41.90;20.39
38880;BME280;25887;30.194;-97.880;2023-08-21T00:47:05;98268.28;;;41.87;20.59
38880;BME280;25887;30.194;-97.880;2023-08-21T00:49:31;98265.34;;;41.82;20.78
38880;BME280;25887;30.194;-97.880;2023-08-21T00:51:58;98269.09;;;41.81;20.66
38880;BME280;25887;30.194;-97.880;2023-08-21T00:54:25;98265.75;;;41.79;20.86
38880;BME280;25887;30.194;-97.880;2023-08-21T00:56:51;98265.34;;;41.76;20.98
38880;BME280;25887;30.194;-97.880;2023-08-21T00:59:19;98267.41;;;41.73;21.00
38880;BME280;25887;30.194;-97.880;2023-08-21T01:01:45;98266.09;;;41.69;21.00
38880;BME280;25887;30.194;-97.880;2023-08-21T01:04:12;98266.72;;;41.65;20.90
38880;BME280;25887;30.194;-97.880;2023-08-21T01:06:38;98268.16;;;41.61;21.08
38880;BME280;25887;30.194;-97.880;2023-08-21T01:09:33;98268.56;;;41.58;20.99
38880;BME280;25887;30.194;-97.880;2023-08-21T01:12:34;98272.66;;;41.54;21.06
38880;BME280;25887;30.194;-97.880;2023-08-21T01:15:09;98276.16;;;41.47;21.04
38880;BME280;25887;30.194;-97.880;2023-08-21T01:17:38;98277.63;;;41.43;21.14
38880;BME280;25887;30.194;-97.880;2023-08-21T01:20:07;98280.91;;;41.39;21.13
38880;BME280;25887;30.194;-97.880;2023-08-21T01:22:40;98280.84;;;41.32;21.37
38880;BME280;25887;30.194;-97.880;2023-08-21T01:25:11;98278.53;;;41.29;21.50
38880;BME280;25887;30.194;-97.880;2023-08-21T01:27:41;98276.63;;;41.23;21.71
38880;BME280;25887;30.194;-97.880;2023-08-21T01:30:08;98274.72;;;41.17;21.47
38880;BME280;25887;30.194;-97.880;2023-08-21T01:33:02;98282.19;;;41.15;21.65
38880;BME280;25887;30.194;-97.880;2023-08-21T01:35:33;98280.66;;;41.06;21.69
38880;BME280;25887;30.194;-97.880;2023-08-21T01:38:01;98285.81;;;41.01;21.96
38880;BME280;25887;30.194;-97.880;2023-08-21T01:40:29;98283.91;;;40.95;22.30
38880;BME280;25887;30.194;-97.880;2023-08-21T01:42:55;98296.09;;;40.90;22.10
38880;BME280;25887;30.194;-97.880;2023-08-21T01:45:22;98304.94;;;40.84;22.00
38880;BME280;25887;30.194;-97.880;2023-08-21T01:47:48;98291.22;;;40.79;22.07
38880;BME280;25887;30.194;-97.880;2023-08-21T01:50:14;98297.38;;;40.73;22.22
38880;BME280;25887;30.194;-97.880;2023-08-21T01:52:40;98299.81;;;40.68;22.42
38880;BME280;25887;30.194;-97.880;2023-08-21T01:55:07;98301.63;;;40.61;22.34
38880;BME280;25887;30.194;-97.880;2023-08-21T01:57:36;98309.47;;;40.56;22.53
38880;BME280;25887;30.194;-97.880;2023-08-21T02:00:03;98308.38;;;40.50;22.67
38880;BME280;25887;30.194;-97.880;2023-08-21T02:02:30;98310.81;;;40.45;22.57
38880;BME280;25887;30.194;-97.880;2023-08-21T02:04:57;98317.94;;;40.38;22.89
38880;BME280;25887;30.194;-97.880;2023-08-21T02:07:23;98317.03;;;40.31;22.66
38880;BME280;25887;30.194;-97.880;2023-08-21T02:09:49;98321.16;;;40.27;22.95
38880;BME280;25887;30.194;-97.880;2023-08-21T02:12:15;98321.91;;;40.21;22.94
38880;BME280;25887;30.194;-97.880;2023-08-21T02:14:41;98314.22;;;40.18;23.14
38880;BME280;25887;30.194;-97.880;2023-08-21T02:17:07;98319.53;;;40.11;23.06
38880;BME280;25887;30.194;-97.880;2023-08-21T02:19:33;98325.66;;;40.05;23.19
38880;BME280;25887;30.194;-97.880;2023-08-21T02:22:00;98325.34;;;40.00;23.27
38880;BME280;25887;30.194;-97.880;2023-08-21T02:24:26;98327.16;;;39.93;23.51
38880;BME280;25887;30.194;-97.880;2023-08-21T02:26:52;98329.38;;;39.89;23.50
38880;BME280;25887;30.194;-97.880;2023-08-21T02:29:18;98330.94;;;39.83;23.28
38880;BME280;25887;30.194;-97.880;2023-08-21T02:31:44;98340.44;;;39.79;23.37
38880;BME280;25887;30.194;-97.880;2023-08-21T02:34:30;98337.47;;;39.74;23.56
38880;BME280;25887;30.194;-97.880;2023-08-21T02:36:56;98341.91;;;39.67;23.78
38880;BME280;25887;30.194;-97.880;2023-08-21T02:39:22;98343.69;;;39.60;23.48
38880;BME280;25887;30.194;-97.880;2023-08-21T02:41:48;98343.19;;;39.56;23.46
38880;BME280;25887;30.194;-97.880;2023-08-21T02:44:14;98344.75;;;39.51;23.87
38880;BME280;25887;30.194;-97.880;2023-08-21T02:46:40;98348.03;;;39.46;24.12
38880;BME280;25887;30.194;-97.880;2023-08-21T02:49:07;98347.94;;;39.40;24.00
38880;BME280;25887;30.194;-97.880;2023-08-21T02:51:34;98341.22;;;39.36;24.24
38880;BME280;25887;30.194;-97.880;2023-08-21T02:54:00;98349.56;;;39.26;24.04
38880;BME280;25887;30.194;-97.880;2023-08-21T02:56:26;98353.81;;;39.20;24.45
38880;BME280;25887;30.194;-97.880;2023-08-21T02:58:52;98359.09;;;39.14;24.83
38880;BME280;25887;30.194;-97.880;2023-08-21T03:01:19;98355.41;;;39.07;24.53
38880;BME280;25887;30.194;-97.880;2023-08-21T03:03:45;98359.00;;;38.99;24.83
38880;BME280;25887;30.194;-97.880;2023-08-21T03:06:11;98354.56;;;38.91;24.86
38880;BME280;25887;30.194;-97.880;2023-08-21T03:08:37;98374.75;;;38.87;25.01
38880;BME280;25887;30.194;-97.880;2023-08-21T03:11:03;98372.97;;;38.80;24.68
38880;BME280;25887;30.194;-97.880;2023-08-21T03:13:29;98368.28;;;38.73;24.40
38880;BME280;25887;30.194;-97.880;2023-08-21T03:15:55;98381.56;;;38.67;25.21
38880;BME280;25887;30.194;-97.880;2023-08-21T03:18:21;98378.59;;;38.62;24.76
38880;BME280;25887;30.194;-97.880;2023-08-21T03:20:48;98377.00;;;38.53;25.09
38880;BME280;25887;30.194;-97.880;2023-08-21T03:23:14;98378.72;;;38.45;24.72
38880;BME280;25887;30.194;-97.880;2023-08-21T03:25:40;98376.91;;;38.38;25.16
38880;BME280;25887;30.194;-97.880;2023-08-21T03:28:06;98383.16;;;38.30;25.74
38880;BME280;25887;30.194;-97.880;2023-08-21T03:30:32;98378.66;;;38.23;25.26
38880;BME280;25887;30.194;-97.880;2023-08-21T03:32:59;98374.81;;;38.17;25.42
38880;BME280;25887;30.194;-97.880;2023-08-21T03:35:25;98380.88;;;38.11;25.26
38880;BME280;25887;30.194;-97.880;2023-08-21T03:37:51;98389.59;;;38.05;25.48
38880;BME280;25887;30.194;-97.880;2023-08-21T03:40:33;98388.63;;;37.98;25.66
38880;BME280;25887;30.194;-97.880;2023-08-21T03:43:00;98379.78;;;37.89;26.03
38880;BME280;25887;30.194;-97.880;2023-08-21T03:45:29;98387.72;;;37.82;26.24
38880;BME280;25887;30.194;-97.880;2023-08-21T03:47:55;98383.00;;;37.76;26.08
38880;BME280;25887;30.194;-97.880;2023-08-21T03:50:21;98385.53;;;37.70;26.07
38880;BME280;25887;30.194;-97.880;2023-08-21T03:52:47;98384.19;;;37.65;26.10
38880;BME280;25887;30.194;-97.880;2023-08-21T03:55:13;98384.91;;;37.59;26.29
38880;BME280;25887;30.194;-97.880;2023-08-21T03:57:39;98390.59;;;37.56;26.44
38880;BME280;25887;30.194;-97.880;2023-08-21T04:00:06;98383.91;;;37.52;26.71
38880;BME280;25887;30.194;-97.880;2023-08-21T04:02:33;98384.22;;;37.49;26.54
38880;BME280;25887;30.194;-97.880;2023-08-21T04:04:59;98389.94;;;37.46;26.66
38880;BME280;25887;30.194;-97.880;2023-08-21T04:07:26;98389.44;;;37.43;26.40
38880;BME280;25887;30.194;-97.880;2023-08-21T04:09:52;98390.63;;;37.40;26.75
38880;BME280;25887;30.194;-97.880;2023-08-21T04:12:18;98388.94;;;37.39;26.84
38880;BME280;25887;30.194;-97.880;2023-08-21T04:14:44;98388.28;;;37.37;26.51
38880;BME280;25887;30.194;-97.880;2023-08-21T04:17:10;98386.63;;;37.36;26.79
38880;BME280;25887;30.194;-97.880;2023-08-21T04:19:36;98388.63;;;37.34;26.86
38880;BME280;25887;30.194;-97.880;2023-08-21T04:22:03;98389.31;;;37.36;26.90
38880;BME280;25887;30.194;-97.880;2023-08-21T04:24:29;98387.59;;;37.35;26.98
38880;BME280;25887;30.194;-97.880;2023-08-21T04:26:55;98384.91;;;37.35;27.08
38880;BME280;25887;30.194;-97.880;2023-08-21T04:29:21;98387.28;;;37.38;26.81
38880;BME280;25887;30.194;-97.880;2023-08-21T04:31:48;98382.75;;;37.39;27.16
38880;BME280;25887;30.194;-97.880;2023-08-21T04:34:14;98394.31;;;37.39;26.98
38880;BME280;25887;30.194;-97.880;2023-08-21T04:36:40;98388.94;;;37.39;26.69
38880;BME280;25887;30.194;-97.880;2023-08-21T04:39:06;98387.94;;;37.40;27.33
38880;BME280;25887;30.194;-97.880;2023-08-21T04:41:33;98394.78;;;37.43;27.50
38880;BME280;25887;30.194;-97.880;2023-08-21T04:43:59;98391.97;;;37.44;26.94
38880;BME280;25887;30.194;-97.880;2023-08-21T04:46:26;98388.28;;;37.45;27.14
38880;BME280;25887;30.194;-97.880;2023-08-21T04:48:52;98381.06;;;37.46;27.13
38880;BME280;25887;30.194;-97.880;2023-08-21T04:51:19;98381.72;;;37.48;27.12
38880;BME280;25887;30.194;-97.880;2023-08-21T04:53:45;98383.75;;;37.46;27.35
38880;BME280;25887;30.194;-97.880;2023-08-21T04:56:12;98379.41;;;37.45;27.21
38880;BME280;25887;30.194;-97.880;2023-08-21T04:58:38;98386.59;;;37.44;27.35
38880;BME280;25887;30.194;-97.880;2023-08-21T05:01:05;98392.13;;;37.43;27.70
38880;BME280;25887;30.194;-97.880;2023-08-21T05:03:31;98397.81;;;37.40;27.65
38880;BME280;25887;30.194;-97.880;2023-08-21T05:05:57;98385.63;;;37.37;27.38
38880;BME280;25887;30.194;-97.880;2023-08-21T05:08:24;98397.66;;;37.33;27.62
38880;BME280;25887;30.194;-97.880;2023-08-21T05:10:58;98399.00;;;37.29;27.34
38880;BME280;25887;30.194;-97.880;2023-08-21T05:13:25;98393.63;;;37.21;27.57
38880;BME280;25887;30.194;-97.880;2023-08-21T05:15:52;98400.50;;;37.15;27.53
38880;BME280;25887;30.194;-97.880;2023-08-21T05:18:19;98409.72;;;37.13;27.71
38880;BME280;25887;30.194;-97.880;2023-08-21T05:20:46;98409.03;;;37.10;27.53
38880;BME280;25887;30.194;-97.880;2023-08-21T05:23:12;98419.09;;;37.08;27.57
38880;BME280;25887;30.194;-97.880;2023-08-21T05:25:38;98415.75;;;37.06;27.64
38880;BME280;25887;30.194;-97.880;2023-08-21T05:28:05;98416.91;;;37.04;27.68
38880;BME280;25887;30.194;-97.880;2023-08-21T05:33:53;98413.25;;;36.97;27.18
38880;BME280;25887;30.194;-97.880;2023-08-21T05:36:19;98418.06;;;36.93;27.78
38880;BME280;25887;30.194;-97.880;2023-08-21T05:38:45;98421.09;;;36.90;27.68
38880;BME280;25887;30.194;-97.880;2023-08-21T05:41:14;98420.56;;;36.87;27.55
38880;BME280;25887;30.194;-97.880;2023-08-21T05:43:40;98427.94;;;36.85;27.67
38880;BME280;25887;30.194;-97.880;2023-08-21T05:46:08;98425.72;;;36.80;27.63
38880;BME280;25887;30.194;-97.880;2023-08-21T05:48:35;98423.38;;;36.77;27.64
38880;BME280;25887;30.194;-97.880;2023-08-21T05:51:01;98425.56;;;36.73;27.51
38880;BME280;25887;30.194;-97.880;2023-08-21T05:53:27;98431.41;;;36.69;28.34
38880;BME280;25887;30.194;-97.880;2023-08-21T05:55:54;98429.19;;;36.64;27.71
38880;BME280;25887;30.194;-97.880;2023-08-21T05:58:20;98419.00;;;36.60;27.82
38880;BME280;25887;30.194;-97.880;2023-08-21T06:00:47;98427.22;;;36.58;27.89
38880;BME280;25887;30.194;-97.880;2023-08-21T06:03:13;98425.00;;;36.53;28.13
38880;BME280;25887;30.194;-97.880;2023-08-21T06:05:39;98426.31;;;36.49;28.38
38880;BME280;25887;30.194;-97.880;2023-08-21T06:08:05;98416.97;;;36.45;28.40
38880;BME280;25887;30.194;-97.880;2023-08-21T06:10:34;98418.81;;;36.45;28.27
38880;BME280;25887;30.194;-97.880;2023-08-21T06:13:00;98412.78;;;36.43;28.15
38880;BME280;25887;30.194;-97.880;2023-08-21T06:15:26;98415.75;;;36.40;28.52
38880;BME280;25887;30.194;-97.880;2023-08-21T06:17:53;98427.47;;;36.39;28.29
38880;BME280;25887;30.194;-97.880;2023-08-21T06:20:19;98423.97;;;36.38;28.50
38880;BME280;25887;30.194;-97.880;2023-08-21T06:22:46;98418.91;;;36.35;28.36
38880;BME280;25887;30.194;-97.880;2023-08-21T06:25:12;98421.91;;;36.32;28.69
38880;BME280;25887;30.194;-97.880;2023-08-21T06:27:39;98421.41;;;36.28;28.59
38880;BME280;25887;30.194;-97.880;2023-08-21T06:30:06;98411.84;;;36.26;29.06
38880;BME280;25887;30.194;-97.880;2023-08-21T06:32:32;98420.88;;;36.25;28.98
38880;BME280;25887;30.194;-97.880;2023-08-21T06:34:58;98426.56;;;36.22;28.94
38880;BME280;25887;30.194;-97.880;2023-08-21T06:37:24;98425.72;;;36.21;28.79
38880;BME280;25887;30.194;-97.880;2023-08-21T06:39:51;98424.22;;;36.19;29.03
38880;BME280;25887;30.194;-97.880;2023-08-21T06:42:17;98422.84;;;36.15;28.69
38880;BME280;25887;30.194;-97.880;2023-08-21T06:44:43;98425.00;;;36.11;28.92
38880;BME280;25887;30.194;-97.880;2023-08-21T06:47:09;98427.00;;;36.09;28.98
38880;BME280;25887;30.194;-97.880;2023-08-21T06:49:35;98429.84;;;36.08;29.52
38880;BME280;25887;30.194;-97.880;2023-08-21T06:52:02;98432.69;;;36.06;29.17
38880;BME280;25887;30.194;-97.880;2023-08-21T06:54:29;98433.50;;;36.07;29.29
38880;BME280;25887;30.194;-97.880;2023-08-21T06:56:55;98430.31;;;36.03;28.88
38880;BME280;25887;30.194;-97.880;2023-08-21T06:59:21;98415.41;;;36.00;29.22
38880;BME280;25887;30.194;-97.880;2023-08-21T07:01:47;98407.72;;;35.97;29.32
38880;BME280;25887;30.194;-97.880;2023-08-21T07:04:13;98408.88;;;35.95;29.55
38880;BME280;25887;30.194;-97.880;2023-08-21T07:06:39;98417.38;;;35.90;29.66
38880;BME280;25887;30.194;-97.880;2023-08-21T07:09:06;98419.34;;;35.88;29.69
38880;BME280;25887;30.194;-97.880;2023-08-21T07:11:33;98412.63;;;35.84;29.76
38880;BME280;25887;30.194;-97.880;2023-08-21T07:13:59;98416.47;;;35.82;29.69
38880;BME280;25887;30.194;-97.880;2023-08-21T07:16:25;98412.44;;;35.78;29.72
38880;BME280;25887;30.194;-97.880;2023-08-21T07:18:52;98415.28;;;35.76;30.25
38880;BME280;25887;30.194;-97.880;2023-08-21T07:21:18;98404.06;;;35.72;30.02
38880;BME280;25887;30.194;-97.880;2023-08-21T07:23:44;98411.38;;;35.70;30.13
38880;BME280;25887;30.194;-97.880;2023-08-21T07:26:10;98413.84;;;35.64;30.19
38880;BME280;25887;30.194;-97.880;2023-08-21T07:28:37;98408.84;;;35.61;30.39
38880;BME280;25887;30.194;-97.880;2023-08-21T07:41:11;98437.34;;;35.34;30.46
38880;BME280;25887;30.194;-97.880;2023-08-21T07:43:41;98443.84;;;35.32;30.50
38880;BME280;25887;30.194;-97.880;2023-08-21T07:46:10;98443.31;;;35.28;30.86
38880;BME280;25887;30.194;-97.880;2023-08-21T07:48:39;98450.94;;;35.23;31.03
38880;BME280;25887;30.194;-97.880;2023-08-21T07:51:05;98439.75;;;35.20;30.97
38880;BME280;25887;30.194;-97.880;2023-08-21T07:53:31;98441.19;;;35.14;31.23
38880;BME280;25887;30.194;-97.880;2023-08-21T07:59:19;98440.34;;;35.13;30.72
38880;BME280;25887;30.194;-97.880;2023-08-21T08:01:45;98434.41;;;35.02;31.36
38880;BME280;25887;30.194;-97.880;2023-08-21T08:04:11;98441.88;;;34.98;31.21
38880;BME280;25887;30.194;-97.880;2023-08-21T08:06:37;98434.19;;;34.95;31.43
38880;BME280;25887;30.194;-97.880;2023-08-21T08:09:04;98437.44;;;34.89;31.68
38880;BME280;25887;30.194;-97.880;2023-08-21T08:11:30;98438.88;;;34.83;31.98
38880;BME280;25887;30.194;-97.880;2023-08-21T08:13:56;98431.47;;;34.77;32.21
38880;BME280;25887;30.194;-97.880;2023-08-21T08:16:22;98427.59;;;34.72;32.69
38880;BME280;25887;30.194;-97.880;2023-08-21T08:18:48;98431.69;;;34.66;33.25
38880;BME280;25887;30.194;-97.880;2023-08-21T08:21:15;98416.28;;;34.60;33.01
38880;BME280;25887;30.194;-97.880;2023-08-21T08:23:41;98418.56;;;34.55;33.62
38880;BME280;25887;30.194;-97.880;2023-08-21T08:26:33;98411.84;;;34.51;33.90
38880;BME280;25887;30.194;-97.880;2023-08-21T08:29:18;98404.59;;;34.43;33.52
38880;BME280;25887;30.194;-97.880;2023-08-21T08:31:46;98403.66;;;34.34;34.12
38880;BME280;25887;30.194;-97.880;2023-08-21T08:34:12;98393.41;;;34.30;33.57
38880;BME280;25887;30.194;-97.880;2023-08-21T08:53:11;98382.34;;;33.70;34.53
38880;BME280;25887;30.194;-97.880;2023-08-21T08:55:39;98387.41;;;33.63;34.70
38880;BME280;25887;30.194;-97.880;2023-08-21T08:58:05;98384.31;;;33.58;34.78
38880;BME280;25887;30.194;-97.880;2023-08-21T09:01:01;98385.31;;;33.57;34.25
38880;BME280;25887;30.194;-97.880;2023-08-21T09:03:48;98384.22;;;33.50;34.16
38880;BME280;25887;30.194;-97.880;2023-08-21T09:06:37;98386.03;;;33.49;34.17
38880;BME280;25887;30.194;-97.880;2023-08-21T09:09:19;98387.28;;;33.45;34.94
38880;BME280;25887;30.194;-97.880;2023-08-21T09:11:47;98389.56;;;33.40;35.05
38880;BME280;25887;30.194;-97.880;2023-08-21T09:14:31;98400.59;;;33.36;35.07
38880;BME280;25887;30.194;-97.880;2023-08-21T09:17:04;98415.91;;;33.24;34.98
38880;BME280;25887;30.194;-97.880;2023-08-21T10:16:53;98429.84;;;32.49;35.19
38880;BME280;25887;30.194;-97.880;2023-08-21T10:45:54;98443.19;;;32.28;35.20
38880;BME280;25887;30.194;-97.880;2023-08-21T10:48:43;98450.34;;;32.27;35.25
38880;BME280;25887;30.194;-97.880;2023-08-21T10:51:29;98456.91;;;32.23;35.04
38880;BME280;25887;30.194;-97.880;2023-08-21T10:53:55;98459.69;;;32.22;35.47
38880;BME280;25887;30.194;-97.880;2023-08-21T10:56:21;98461.63;;;32.20;35.30
38880;BME280;25887;30.194;-97.880;2023-08-21T10:58:50;98458.28;;;32.17;35.04
38880;BME280;25887;30.194;-97.880;2023-08-21T11:01:17;98454.09;;;32.15;35.05
38880;BME280;25887;30.194;-97.880;2023-08-21T11:03:52;98458.66;;;32.13;35.27
38880;BME280;25887;30.194;-97.880;2023-08-21T11:06:45;98463.28;;;32.11;34.84
38880;BME280;25887;30.194;-97.880;2023-08-21T11:09:32;98464.41;;;32.08;35.57
38880;BME280;25887;30.194;-97.880;2023-08-21T11:12:06;98469.97;;;32.05;35.41
38880;BME280;25887;30.194;-97.880;2023-08-21T11:14:32;98464.94;;;32.02;35.29
38880;BME280;25887;30.194;-97.880;2023-08-21T11:16:59;98467.72;;;32.01;35.09
38880;BME280;25887;30.194;-97.880;2023-08-21T11:19:25;98467.88;;;31.99;35.31
38880;BME280;25887;30.194;-97.880;2023-08-21T11:21:52;98460.13;;;31.96;35.46
38880;BME280;25887;30.194;-97.880;2023-08-21T11:24:53;98464.63;;;31.96;35.44
38880;BME280;25887;30.194;-97.880;2023-08-21T12:07:34;98471.03;;;31.51;35.47
38880;BME280;25887;30.194;-97.880;2023-08-21T12:24:09;98485.81;;;31.44;36.00
38880;BME280;25887;30.194;-97.880;2023-08-21T12:27:43;98488.91;;;31.49;35.92
38880;BME280;25887;30.194;-97.880;2023-08-21T12:30:11;98483.59;;;31.49;35.69
38880;BME280;25887;30.194;-97.880;2023-08-21T12:32:56;98492.03;;;31.54;35.84
38880;BME280;25887;30.194;-97.880;2023-08-21T12:45:57;98490.16;;;31.66;36.02
38880;BME280;25887;30.194;-97.880;2023-08-21T12:55:29;98493.63;;;31.78;35.90
38880;BME280;25887;30.194;-97.880;2023-08-21T12:57:57;98493.09;;;31.84;36.34
38880;BME280;25887;30.194;-97.880;2023-08-21T13:00:24;98494.69;;;31.96;36.03
38880;BME280;25887;30.194;-97.880;2023-08-21T13:02:50;98499.69;;;32.20;35.80
38880;BME280;25887;30.194;-97.880;2023-08-21T13:05:16;98503.38;;;32.29;35.82
38880;BME280;25887;30.194;-97.880;2023-08-21T13:07:42;98505.41;;;32.36;35.76
38880;BME280;25887;30.194;-97.880;2023-08-21T13:10:09;98497.47;;;32.46;35.75
38880;BME280;25887;30.194;-97.880;2023-08-21T13:12:35;98509.81;;;32.57;36.10
38880;BME280;25887;30.194;-97.880;2023-08-21T13:15:02;98504.94;;;32.71;36.02
38880;BME280;25887;30.194;-97.880;2023-08-21T13:17:28;98504.41;;;32.78;35.76
38880;BME280;25887;30.194;-97.880;2023-08-21T13:19:54;98504.81;;;32.83;35.66
38880;BME280;25887;30.194;-97.880;2023-08-21T13:22:44;98515.34;;;32.84;35.82
38880;BME280;25887;30.194;-97.880;2023-08-21T13:41:43;98529.94;;;32.90;35.52
38880;BME280;25887;30.194;-97.880;2023-08-21T13:54:20;98516.69;;;33.09;35.74
38880;BME280;25887;30.194;-97.880;2023-08-21T14:33:12;98519.94;;;34.27;34.78
38880;BME280;25887;30.194;-97.880;2023-08-21T14:35:49;98513.03;;;34.34;34.05
38880;BME280;25887;30.194;-97.880;2023-08-21T14:38:15;98516.22;;;34.48;34.30
38880;BME280;25887;30.194;-97.880;2023-08-21T14:40:47;98510.84;;;34.57;33.50
38880;BME280;25887;30.194;-97.880;2023-08-21T14:43:21;98517.78;;;34.68;33.97
38880;BME280;25887;30.194;-97.880;2023-08-21T14:45:57;98518.66;;;34.86;33.66
38880;BME280;25887;30.194;-97.880;2023-08-21T14:52:17;98519.56;;;35.40;32.86
38880;BME280;25887;30.194;-97.880;2023-08-21T14:54:43;98524.59;;;35.61;32.84
38880;BME280;25887;30.194;-97.880;2023-08-21T14:57:09;98516.53;;;35.79;32.50
38880;BME280;25887;30.194;-97.880;2023-08-21T15:02:57;98526.50;;;36.13;31.75
38880;BME280;25887;30.194;-97.880;2023-08-21T15:05:25;98527.88;;;36.25;31.74
38880;BME280;25887;30.194;-97.880;2023-08-21T15:07:51;98519.06;;;36.33;31.47
38880;BME280;25887;30.194;-97.880;2023-08-21T15:10:20;98531.38;;;36.43;31.33
38880;BME280;25887;30.194;-97.880;2023-08-21T15:44:27;98532.81;;;37.30;29.67
38880;BME280;25887;30.194;-97.880;2023-08-21T15:46:55;98530.16;;;37.39;29.69
38880;BME280;25887;30.194;-97.880;2023-08-21T15:49:21;98527.50;;;37.47;29.11
38880;BME280;25887;30.194;-97.880;2023-08-21T15:51:47;98528.50;;;37.54;29.41
38880;BME280;25887;30.194;-97.880;2023-08-21T15:54:30;98523.97;;;37.62;29.01
38880;BME280;25887;30.194;-97.880;2023-08-21T15:56:57;98521.63;;;37.68;28.58
38880;BME280;25887;30.194;-97.880;2023-08-21T15:59:23;98525.97;;;37.77;28.92
38880;BME280;25887;30.194;-97.880;2023-08-21T16:01:49;98519.13;;;37.82;28.75
38880;BME280;25887;30.194;-97.880;2023-08-21T16:04:15;98529.16;;;37.88;28.70
38880;BME280;25887;30.194;-97.880;2023-08-21T16:06:41;98538.03;;;37.97;28.12
38880;BME280;25887;30.194;-97.880;2023-08-21T16:09:08;98535.31;;;38.05;28.64
38880;BME280;25887;30.194;-97.880;2023-08-21T16:11:44;98537.16;;;38.13;28.17
38880;BME280;25887;30.194;-97.880;2023-08-21T16:14:10;98542.34;;;38.23;28.35
38880;BME280;25887;30.194;-97.880;2023-08-21T16:16:39;98543.00;;;38.33;28.21
38880;BME280;25887;30.194;-97.880;2023-08-21T16:19:07;98538.63;;;38.40;28.11
38880;BME280;25887;30.194;-97.880;2023-08-21T16:21:33;98537.59;;;38.49;28.08
38880;BME280;25887;30.194;-97.880;2023-08-21T16:23:59;98545.59;;;38.57;27.51
38880;BME280;25887;30.194;-97.880;2023-08-21T16:26:25;98541.22;;;38.64;27.77
38880;BME280;25887;30.194;-97.880;2023-08-21T16:28:51;98535.84;;;38.72;27.51
38880;BME280;25887;30.194;-97.880;2023-08-21T16:31:17;98524.03;;;38.82;27.62
38880;BME280;25887;30.194;-97.880;2023-08-21T16:33:43;98533.06;;;38.89;27.86
38880;BME280;25887;30.194;-97.880;2023-08-21T16:36:10;98539.09;;;38.91;27.17
38880;BME280;25887;30.194;-97.880;2023-08-21T16:38:36;98534.59;;;38.91;27.24
38880;BME280;25887;30.194;-97.880;2023-08-21T16:41:02;98524.50;;;38.93;27.11
38880;BME280;25887;30.194;-97.880;2023-08-21T16:43:28;98518.56;;;38.98;27.45
38880;BME280;25887;30.194;-97.880;2023-08-21T16:45:56;98521.38;;;39.05;26.99
38880;BME280;25887;30.194;-97.880;2023-08-21T16:48:22;98524.00;;;39.13;27.01
38880;BME280;25887;30.194;-97.880;2023-08-21T16:50:48;98522.44;;;39.26;26.86
38880;BME280;25887;30.194;-97.880;2023-08-21T16:53:15;98531.59;;;39.40;26.64
38880;BME280;25887;30.194;-97.880;2023-08-21T16:55:41;98523.06;;;39.51;26.22
38880;BME280;25887;30.194;-97.880;2023-08-21T16:58:09;98511.25;;;39.61;26.59
38880;BME280;25887;30.194;-97.880;2023-08-21T17:01:01;98510.84;;;39.72;26.60
38880;BME280;25887;30.194;-97.880;2023-08-21T17:03:29;98504.53;;;39.79;26.32
38880;BME280;25887;30.194;-97.880;2023-08-21T17:05:55;98500.56;;;39.90;26.51
38880;BME280;25887;30.194;-97.880;2023-08-21T17:08:21;98506.19;;;40.03;25.94
38880;BME280;25887;30.194;-97.880;2023-08-21T17:10:47;98487.06;;;40.13;25.76
38880;BME280;25887;30.194;-97.880;2023-08-21T17:13:13;98503.28;;;40.20;25.44
38880;BME280;25887;30.194;-97.880;2023-08-21T17:15:39;98493.16;;;40.22;25.45
38880;BME280;25887;30.194;-97.880;2023-08-21T17:18:06;98488.91;;;40.27;25.38
38880;BME280;25887;30.194;-97.880;2023-08-21T17:20:33;98497.91;;;40.34;25.39
38880;BME280;25887;30.194;-97.880;2023-08-21T17:22:59;98485.91;;;40.37;24.87
38880;BME280;25887;30.194;-97.880;2023-08-21T17:25:26;98491.31;;;40.37;25.17
38880;BME280;25887;30.194;-97.880;2023-08-21T17:27:52;98490.13;;;40.40;25.38
38880;BME280;25887;30.194;-97.880;2023-08-21T17:30:18;98494.81;;;40.37;25.12
38880;BME280;25887;30.194;-97.880;2023-08-21T17:32:44;98493.81;;;40.38;25.17
38880;BME280;25887;30.194;-97.880;2023-08-21T17:41:56;98468.94;;;40.36;25.05
38880;BME280;25887;30.194;-97.880;2023-08-21T17:44:24;98471.72;;;40.43;24.83